Overview Statistics Trail Chart Weather Telemetry Raw packets
 

This is the latest recevied weather packets stored in our database for station/object WX5KDM. If no packets are shown the sender has not sent any weather packets the latest 10 day(s).

<< 89 90 91 92 93 94 95 >>
Time Temp. Humidity Pressure Rain* Wind** Luminosity Snow
1787963173 26.67° C 64% 1017 hPa 0 mm - - -
1787962864 27.22° C 63% 1016.9 hPa 0 mm - - -
1787962562 27.22° C 61% 1017 hPa 0 mm - - -
1787962261 27.78° C 59% 1016.7 hPa 0 mm - - -
1787961956 28.33° C 58% 1016.9 hPa 0 mm - - -
1787961651 28.33° C 57% 1016.7 hPa 0 mm - - -
1787961344 28.89° C 54% 1016.8 hPa 0 mm - - -
1787961039 29.44° C 53% 1016.8 hPa 0 mm - - -
1787960733 30° C 52% 1016.9 hPa 0 mm - - -
1787960433 30.56° C 51% 1016.8 hPa 0 mm - - -
1787960127 30.56° C 49% 1017 hPa 0 mm - - -
1787959822 31.11° C 49% 1016.7 hPa 0 mm - - -
1787959517 31.11° C 47% 1016.8 hPa 0 mm - - -
1787959217 31.67° C 46% 1016.7 hPa 0 mm - - -
1787958912 31.11° C 47% 1017 hPa 0 mm - - -
1787958607 31.11° C 46% 1017 hPa 0 mm - - -
1787958303 31.11° C 46% 1016.7 hPa 0 mm - - -
1787958002 31.67° C 45% 1016.9 hPa 0 mm - - -
1787957702 31.67° C 46% 1017 hPa 0 mm - - -
1787957397 32.22° C 44% 1016.9 hPa 0 mm - - -
1787957096 31.67° C 46% 1016.8 hPa 0 mm - - -
1787956791 31.67° C 45% 1016.8 hPa 0 mm - - -
1787956486 31.67° C 44% 1016.7 hPa 0 mm - - -
1787956181 31.67° C 45% 1016.7 hPa 0 mm - - -
1787955881 31.67° C 45% 1016.7 hPa 0 mm - - -

* Rain latest hour (hover to see other rain measurements)
** Current wind speed in m/s (hover to see current wind gust speed)